Time;durP1;ratioP1;P1;durP2;ratioP2;P2;SDS_P1;SDS_P2;PMS_P1;PMS_P2;Temp;Humidity;BMP_temperature;BMP_pressure;BME280_temperature;BME280_humidity;BME280_pressure;Samples;Min_cycle;Max_cycle;Signal;HPM_P1;HPM_P2
2023/04/25 00:01:05;;;;;;;10.87;3.23;;;;;;;4.63;100.00;63258.31;4961036;29;20047;-92
2023/04/25 00:03:31;;;;;;;16.38;3.30;;;;;;;4.65;100.00;63260.56;4944358;29;20034;-93
2023/04/25 00:05:57;;;;;;;13.43;3.35;;;;;;;4.67;100.00;63262.38;4974872;28;20054;-93
2023/04/25 00:08:23;;;;;;;9.30;3.03;;;;;;;4.69;100.00;63263.47;4978967;28;20039;-91
2023/04/25 00:10:48;;;;;;;12.90;2.83;;;;;;;4.70;100.00;63264.13;4964733;29;20016;-91
2023/04/25 00:13:14;;;;;;;12.50;3.15;;;;;;;4.69;100.00;63263.72;4960877;29;20067;-91
2023/04/25 00:15:41;;;;;;;11.10;3.30;;;;;;;4.69;100.00;63262.97;4968355;28;20015;-91
2023/04/25 00:18:07;;;;;;;10.53;2.73;;;;;;;4.67;100.00;63261.31;4961851;28;20535;-94
2023/04/25 00:20:32;;;;;;;10.40;3.10;;;;;;;4.65;100.00;63258.81;4944947;29;20019;-90
2023/04/25 00:22:57;;;;;;;12.73;2.90;;;;;;;4.61;100.00;63255.66;4978695;28;20031;-93
2023/04/25 00:25:23;;;;;;;13.97;4.03;;;;;;;4.58;100.00;63252.34;4979877;28;20023;-93
2023/04/25 00:27:48;;;;;;;16.65;2.83;;;;;;;4.54;100.00;63248.72;4973475;29;20675;-92
2023/04/25 00:30:14;;;;;;;12.63;3.03;;;;;;;4.51;100.00;63245.31;4957313;29;20031;-92
2023/04/25 00:32:40;;;;;;;11.52;2.65;;;;;;;4.47;100.00;63242.19;4952933;29;20032;-92
2023/04/25 00:35:05;;;;;;;22.20;3.20;;;;;;;4.44;100.00;63239.09;4976709;29;20115;-90
2023/04/25 00:37:31;;;;;;;22.98;3.00;;;;;;;4.41;100.00;63235.81;4977146;28;20399;-91
2023/04/25 00:39:58;;;;;;;13.17;3.27;;;;;;;4.37;100.00;63231.97;4960663;28;20012;-92
2023/04/25 00:42:24;;;;;;;13.57;2.90;;;;;;;4.33;100.00;63227.94;4959998;28;20032;-92
2023/04/25 00:44:52;;;;;;;14.52;2.35;;;;;;;4.29;100.00;63224.19;4957268;29;20024;-92
2023/04/25 00:47:17;;;;;;;16.40;3.28;;;;;;;4.25;100.00;63219.56;4960731;28;20031;-94
2023/04/25 00:49:43;;;;;;;13.23;3.00;;;;;;;4.20;100.00;63214.84;4952935;28;20040;-94
2023/04/25 00:52:09;;;;;;;14.30;3.33;;;;;;;4.15;100.00;63209.63;4943994;29;20046;-93
2023/04/25 00:54:34;;;;;;;12.90;2.70;;;;;;;4.11;100.00;63205.00;4945055;29;20051;-92
2023/04/25 00:57:00;;;;;;;17.67;2.80;;;;;;;4.06;100.00;63199.94;4954165;29;20028;-93
2023/04/25 00:59:27;;;;;;;16.75;2.58;;;;;;;4.01;100.00;63195.41;4923382;29;20027;-93
2023/04/25 01:01:53;;;;;;;12.95;2.90;;;;;;;3.98;100.00;63191.75;4957999;28;20607;-92
2023/04/25 01:04:18;;;;;;;15.35;3.00;;;;;;;3.94;100.00;63188.19;4939679;29;20058;-93
2023/04/25 01:06:44;;;;;;;14.90;3.90;;;;;;;3.91;100.00;63185.22;4957619;29;20023;-93
2023/04/25 01:09:10;;;;;;;15.73;3.55;;;;;;;3.88;100.00;63181.91;4955990;29;20035;-92
2023/04/25 01:11:35;;;;;;;19.13;3.97;;;;;;;3.85;100.00;63178.53;4955858;28;20086;-93
2023/04/25 01:14:01;;;;;;;15.93;3.80;;;;;;;3.82;100.00;63175.88;4938799;29;20139;-92
2023/04/25 01:16:27;;;;;;;14.40;3.78;;;;;;;3.79;100.00;63172.56;4952181;28;20047;-91
2023/04/25 01:18:54;;;;;;;12.70;4.28;;;;;;;3.76;100.00;63169.66;4939686;29;20138;-92
2023/04/25 01:21:19;;;;;;;15.05;4.15;;;;;;;3.72;100.00;63165.78;4941529;29;20527;-91
2023/04/25 01:23:45;;;;;;;15.90;3.77;;;;;;;3.68;100.00;63161.88;4945030;29;20074;-91
2023/04/25 01:26:11;;;;;;;11.45;3.60;;;;;;;3.64;100.00;63157.91;4939870;29;20073;-92
2023/04/25 01:28:40;;;;;;;17.17;4.10;;;;;;;3.61;100.00;63154.44;4940922;29;20027;-91
2023/04/25 01:31:06;;;;;;;11.23;3.65;;;;;;;3.58;100.00;63151.38;4955211;29;20031;-92
2023/04/25 01:33:31;;;;;;;19.67;4.67;;;;;;;3.54;100.00;63148.16;4957787;28;20132;-92
2023/04/25 01:35:57;;;;;;;16.23;4.50;;;;;;;3.52;100.00;63145.47;4957701;29;20038;-91
2023/04/25 01:38:22;;;;;;;17.50;4.40;;;;;;;3.50;100.00;63143.91;4953855;28;20054;-91
2023/04/25 01:40:50;;;;;;;15.35;4.55;;;;;;;3.50;100.00;63144.00;4925777;29;20039;-92
2023/04/25 01:43:16;;;;;;;16.67;4.70;;;;;;;3.50;100.00;63144.25;4920274;29;20034;-91
2023/04/25 01:45:43;;;;;;;18.08;3.88;;;;;;;3.51;100.00;63144.91;4937772;29;20392;-92
2023/04/25 01:48:09;;;;;;;12.23;3.72;;;;;;;3.52;100.00;63146.41;4918002;29;20043;-92
2023/04/25 01:50:35;;;;;;;18.95;4.43;;;;;;;3.54;100.00;63147.81;4937748;29;20032;-90
2023/04/25 01:53:01;;;;;;;15.67;4.10;;;;;;;3.55;100.00;63149.38;4940873;29;20050;-89
2023/04/25 01:55:28;;;;;;;15.32;4.50;;;;;;;3.57;100.00;63151.03;4947124;29;20048;-90
2023/04/25 01:57:55;;;;;;;21.00;3.97;;;;;;;3.59;100.00;63153.19;4950409;29;20403;-90
2023/04/25 02:00:21;;;;;;;18.20;3.73;;;;;;;3.60;100.00;63154.19;4936728;29;20056;-90
2023/04/25 02:02:46;;;;;;;15.88;4.05;;;;;;;3.62;100.00;63155.50;4920376;29;20395;-90
2023/04/25 02:05:11;;;;;;;17.37;4.37;;;;;;;3.63;100.00;63156.91;4963500;28;20027;-89
2023/04/25 02:07:37;;;;;;;13.83;4.10;;;;;;;3.64;100.00;63157.47;4964551;29;20028;-90
2023/04/25 02:10:03;;;;;;;16.83;3.70;;;;;;;3.63;100.00;63157.25;4937255;29;20471;-90
2023/04/25 02:12:28;;;;;;;18.90;3.78;;;;;;;3.63;100.00;63156.59;4949484;29;20031;-89
2023/04/25 02:14:54;;;;;;;18.27;3.73;;;;;;;3.62;100.00;63155.16;4943714;29;20027;-90
2023/04/25 02:17:21;;;;;;;14.30;3.67;;;;;;;3.59;100.00;63153.09;4937565;29;20283;-90
2023/04/25 02:19:47;;;;;;;18.88;4.20;;;;;;;3.57;100.00;63150.63;4918556;29;20027;-90
2023/04/25 02:22:12;;;;;;;17.03;4.23;;;;;;;3.55;100.00;63148.63;4939639;29;20031;-90
2023/04/25 02:24:38;;;;;;;18.30;4.75;;;;;;;3.52;100.00;63146.00;4936233;29;20024;-90
2023/04/25 02:27:04;;;;;;;23.27;3.83;;;;;;;3.49;100.00;63142.91;4936424;29;20099;-90
2023/04/25 02:29:29;;;;;;;18.85;4.43;;;;;;;3.47;100.00;63140.59;4922012;28;20074;-90
2023/04/25 02:31:55;;;;;;;24.60;4.63;;;;;;;3.44;100.00;63137.72;4935309;29;20494;-89
2023/04/25 02:34:20;;;;;;;17.07;4.07;;;;;;;3.41;100.00;63134.06;4936113;29;20038;-91
2023/04/25 02:36:48;;;;;;;22.23;4.40;;;;;;;3.37;100.00;63130.69;4946773;28;20023;-90
2023/04/25 02:39:13;;;;;;;12.20;3.57;;;;;;;3.34;100.00;63127.03;4953135;29;20034;-90
2023/04/25 02:41:49;;;;;;;16.03;4.40;;;;;;;3.28;100.00;63121.66;4961174;23;20849;-90
2023/04/25 02:44:16;;;;;;;17.30;3.88;;;;;;;3.24;100.00;63117.44;4918462;29;20028;-91
2023/04/25 02:46:42;;;;;;;18.67;4.85;;;;;;;3.21;100.00;63114.22;4935535;29;20027;-91
2023/04/25 02:49:08;;;;;;;21.23;4.13;;;;;;;3.18;100.00;63110.81;4936413;29;20475;-90
2023/04/25 02:51:33;;;;;;;22.13;4.07;;;;;;;3.14;100.00;63106.63;4934415;29;20295;-90
2023/04/25 02:53:58;;;;;;;14.50;4.13;;;;;;;3.10;100.00;63103.38;4915285;29;20020;-90
2023/04/25 02:56:25;;;;;;;15.70;3.53;;;;;;;3.07;100.00;63099.72;4916893;29;20042;-89
2023/04/25 02:58:52;;;;;;;17.52;4.07;;;;;;;3.03;100.00;63096.34;4901283;29;20064;-90
2023/04/25 03:01:18;;;;;;;15.60;3.75;;;;;;;2.99;100.00;63092.13;4898231;29;20541;-91
2023/04/25 03:03:43;;;;;;;18.53;3.80;;;;;;;2.94;100.00;63086.94;4915496;29;20032;-90
2023/04/25 03:06:08;;;;;;;16.87;3.90;;;;;;;2.90;100.00;63083.19;4916631;29;20071;-90
2023/04/25 03:08:34;;;;;;;13.57;3.90;;;;;;;2.86;100.00;63079.31;4916716;29;20424;-90
2023/04/25 03:10:59;;;;;;;17.90;3.90;;;;;;;2.82;100.00;63075.03;4916938;29;20476;-90
2023/04/25 03:13:25;;;;;;;18.43;3.87;;;;;;;2.77;100.00;63070.38;4922379;29;20016;-89
2023/04/25 03:15:50;;;;;;;18.92;4.07;;;;;;;2.73;100.00;63065.81;4927425;29;20496;-92
2023/04/25 03:18:16;;;;;;;21.50;4.57;;;;;;;2.69;100.00;63061.53;4917866;29;20560;-91
2023/04/25 03:20:43;;;;;;;19.83;3.70;;;;;;;2.65;100.00;63057.66;4918436;29;20028;-90
2023/04/25 03:23:08;;;;;;;14.80;4.88;;;;;;;2.61;100.00;63053.34;4921619;29;20020;-90
2023/04/25 03:25:34;;;;;;;14.60;3.67;;;;;;;2.56;100.00;63049.22;4909834;29;20043;-91
2023/04/25 03:28:01;;;;;;;17.67;4.10;;;;;;;2.53;100.00;63045.00;4939778;29;20323;-91
2023/04/25 03:30:26;;;;;;;16.65;4.55;;;;;;;2.49;100.00;63041.78;4939806;29;20028;-91
2023/04/25 03:32:51;;;;;;;12.70;3.80;;;;;;;2.46;100.00;63038.72;4939795;29;20060;-91
2023/04/25 03:35:17;;;;;;;20.70;5.10;;;;;;;2.45;100.00;63036.56;4939669;29;20016;-91
2023/04/25 03:37:45;;;;;;;25.57;4.90;;;;;;;2.44;100.00;63035.59;4937610;29;20051;-91
2023/04/25 03:40:11;;;;;;;19.25;4.32;;;;;;;2.43;100.00;63034.91;4939310;28;20020;-91
2023/04/25 03:42:36;;;;;;;20.88;4.65;;;;;;;2.43;100.00;63035.06;4938589;29;20092;-91
2023/04/25 03:45:02;;;;;;;15.80;4.00;;;;;;;2.43;100.00;63035.06;4938997;29;20039;-92
2023/04/25 03:47:27;;;;;;;21.23;4.70;;;;;;;2.44;100.00;63035.59;4939285;29;20075;-91
2023/04/25 03:49:52;;;;;;;24.67;4.77;;;;;;;2.44;100.00;63036.31;4914968;29;20128;-91
2023/04/25 03:52:18;;;;;;;24.33;4.90;;;;;;;2.45;100.00;63037.47;4921560;29;20037;-92
2023/04/25 03:54:44;;;;;;;17.73;4.20;;;;;;;2.46;100.00;63038.22;4922692;29;20095;-91
2023/04/25 03:57:10;;;;;;;18.60;3.90;;;;;;;2.47;100.00;63039.06;4922801;29;20028;-92
2023/04/25 03:59:35;;;;;;;17.88;4.72;;;;;;;2.48;100.00;63040.53;4925927;29;20408;-91
2023/04/25 04:02:00;;;;;;;16.77;4.50;;;;;;;2.50;100.00;63041.94;4936949;29;20024;-90
2023/04/25 04:04:26;;;;;;;15.80;4.37;;;;;;;2.52;100.00;63044.00;4937498;29;20036;-91
2023/04/25 04:06:52;;;;;;;21.87;4.40;;;;;;;2.53;100.00;63045.91;4934013;29;20031;-91
2023/04/25 04:09:17;;;;;;;15.77;4.57;;;;;;;2.55;100.00;63048.06;4915155;29;20442;-92
2023/04/25 04:11:43;;;;;;;21.83;4.67;;;;;;;2.57;100.00;63050.38;4922571;29;20119;-93
2023/04/25 04:14:10;;;;;;;17.57;4.37;;;;;;;2.59;100.00;63052.28;4920941;29;20322;-92
2023/04/25 04:16:35;;;;;;;23.03;4.87;;;;;;;2.62;100.00;63055.16;4910932;29;20491;-92
2023/04/25 04:19:00;;;;;;;18.60;4.13;;;;;;;2.65;100.00;63058.13;4900859;29;20281;-92
2023/04/25 04:21:26;;;;;;;25.70;3.87;;;;;;;2.67;100.00;63060.53;4899749;29;20035;-93
2023/04/25 04:23:52;;;;;;;29.02;4.70;;;;;;;2.70;100.00;63063.16;4902042;29;20026;-92
2023/04/25 04:26:18;;;;;;;18.57;4.13;;;;;;;2.73;100.00;63066.16;4932843;29;20024;-93
2023/04/25 04:28:43;;;;;;;23.15;4.55;;;;;;;2.76;100.00;63068.72;4918514;29;20031;-91
2023/04/25 04:31:10;;;;;;;20.57;4.00;;;;;;;2.78;100.00;63071.44;4917969;29;20103;-91
2023/04/25 04:33:36;;;;;;;25.97;4.33;;;;;;;2.81;100.00;63074.19;4917777;29;20663;-91
2023/04/25 04:36:02;;;;;;;22.38;4.25;;;;;;;2.84;100.00;63077.00;4932578;29;20028;-90
2023/04/25 04:38:28;;;;;;;22.45;4.07;;;;;;;2.87;100.00;63079.91;4920922;29;20032;-91
2023/04/25 04:40:54;;;;;;;19.80;4.32;;;;;;;2.90;100.00;63083.03;4918768;29;20033;-90
2023/04/25 04:43:20;;;;;;;20.90;3.83;;;;;;;2.93;100.00;63085.78;4918834;29;20029;-91
2023/04/25 04:45:45;;;;;;;23.87;4.53;;;;;;;2.96;100.00;63088.91;4936829;29;20064;-90
2023/04/25 04:48:13;;;;;;;22.13;4.23;;;;;;;2.99;100.00;63091.91;4939553;29;20374;-92
2023/04/25 04:50:40;;;;;;;21.45;3.95;;;;;;;3.02;100.00;63094.38;4915766;29;20035;-92
2023/04/25 04:53:05;;;;;;;18.20;3.20;;;;;;;3.04;100.00;63097.09;4941783;29;20017;-91
2023/04/25 04:55:31;;;;;;;19.20;4.03;;;;;;;3.07;100.00;63099.41;4936928;29;20093;-91
2023/04/25 04:57:56;;;;;;;19.63;3.13;;;;;;;3.10;100.00;63102.16;4940963;29;20024;-91
2023/04/25 05:00:21;;;;;;;19.77;4.03;;;;;;;3.12;100.00;63104.22;4936293;29;20327;-91
2023/04/25 05:02:47;;;;;;;19.57;4.00;;;;;;;3.15;100.00;63106.88;4924468;29;20009;-91
2023/04/25 05:05:12;;;;;;;17.53;3.43;;;;;;;3.18;100.00;63110.16;4903286;29;20547;-92
2023/04/25 05:07:38;;;;;;;17.50;3.80;;;;;;;3.21;100.00;63113.97;4918347;29;20032;-91
2023/04/25 05:10:06;;;;;;;18.70;3.88;;;;;;;3.25;100.00;63117.69;4902431;29;20079;-91
2023/04/25 05:12:31;;;;;;;22.45;4.60;;;;;;;3.30;100.00;63122.56;4934407;23;20048;-83
2023/04/25 05:14:57;;;;;;;26.77;4.33;;;;;;;3.35;100.00;63127.31;4934575;29;20491;-84
2023/04/25 05:22:32;;;;;;;17.67;3.60;;;;;;;3.50;100.00;63143.19;5341382;23;20059;-84
2023/04/25 05:24:58;;;;;;;19.63;3.43;;;;;;;3.56;100.00;63148.97;4945110;28;20027;-86
2023/04/25 05:27:24;;;;;;;18.70;4.00;;;;;;;3.61;100.00;63154.09;4950539;29;20037;-85
2023/04/25 05:29:50;;;;;;;24.27;4.47;;;;;;;3.66;100.00;63159.81;4954334;28;20047;-84
2023/04/25 05:32:16;;;;;;;16.90;3.30;;;;;;;3.72;100.00;63165.53;4982201;23;20055;-83
2023/04/25 05:34:41;;;;;;;16.83;3.70;;;;;;;3.76;100.00;63170.00;4955190;28;20028;-84
2023/04/25 05:37:07;;;;;;;15.17;3.60;;;;;;;3.83;100.00;63176.28;4953071;28;20039;-84
2023/04/25 05:39:32;;;;;;;11.43;3.05;;;;;;;3.89;100.00;63183.41;4952532;28;20035;-84
2023/04/25 05:41:58;;;;;;;21.43;4.10;;;;;;;3.96;100.00;63190.09;4944666;29;20078;-84
2023/04/25 05:44:23;;;;;;;19.67;3.53;;;;;;;4.03;100.00;63197.28;4935527;29;20043;-83
2023/04/25 05:46:48;;;;;;;18.00;3.20;;;;;;;4.10;100.00;63204.09;4933079;29;20035;-84
2023/04/25 05:49:14;;;;;;;12.67;3.27;;;;;;;4.18;100.00;63211.38;4933015;29;20303;-85
2023/04/25 05:51:40;;;;;;;12.87;3.00;;;;;;;4.26;100.00;63219.97;4934772;29;20043;-83
2023/04/25 05:54:05;;;;;;;23.70;3.38;;;;;;;4.35;100.00;63228.50;4934259;29;20071;-85
2023/04/25 05:56:31;;;;;;;13.43;3.20;;;;;;;4.43;100.00;63236.88;4934000;29;20055;-84
2023/04/25 05:58:56;;;;;;;12.97;2.90;;;;;;;4.52;100.00;63245.50;4932531;29;20031;-84
2023/04/25 06:01:23;;;;;;;11.40;3.60;;;;;;;4.61;100.00;63254.44;4934986;29;20083;-85
2023/04/25 06:03:48;;;;;;;12.90;3.05;;;;;;;4.69;100.00;63262.97;4933188;29;20032;-83
2023/04/25 06:06:13;;;;;;;17.53;3.00;;;;;;;4.77;100.00;63270.66;4931613;29;20034;-83
2023/04/25 06:08:39;;;;;;;15.02;3.38;;;;;;;4.84;100.00;63278.94;4930237;29;20055;-85
2023/04/25 06:11:05;;;;;;;12.80;2.77;;;;;;;4.92;100.00;63286.06;4934150;29;20091;-85
2023/04/25 06:13:31;;;;;;;14.07;2.57;;;;;;;4.99;100.00;63293.78;4933139;29;20889;-84
2023/04/25 06:15:56;;;;;;;12.15;2.45;;;;;;;5.06;100.00;63300.66;4933425;29;20055;-84
2023/04/25 06:18:24;;;;;;;10.73;2.37;;;;;;;5.14;100.00;63307.88;4935661;29;20032;-85
2023/04/25 06:20:50;;;;;;;13.23;2.15;;;;;;;5.20;100.00;63314.81;4930341;29;20042;-85
2023/04/25 06:23:15;;;;;;;12.07;2.23;;;;;;;5.26;100.00;63320.63;4937068;29;20028;-83
2023/04/25 06:25:41;;;;;;;9.10;2.40;;;;;;;5.30;100.00;63324.69;4953588;29;20027;-83
2023/04/25 06:28:08;;;;;;;9.37;2.27;;;;;;;5.33;100.00;63327.75;4917680;29;20028;-85
2023/04/25 06:30:33;;;;;;;14.15;2.25;;;;;;;5.35;100.00;63330.25;4918817;29;20032;-86
2023/04/25 06:32:58;;;;;;;12.10;2.60;;;;;;;5.36;100.00;63331.56;4965746;23;20498;-85
2023/04/25 06:35:24;;;;;;;18.13;2.30;;;;;;;5.37;100.00;63331.81;4952488;28;20680;-86
2023/04/25 06:37:49;;;;;;;13.10;2.10;;;;;;;5.35;100.00;63330.56;4957462;28;20035;-85
2023/04/25 06:40:15;;;;;;;12.87;2.37;;;;;;;5.36;100.00;63331.31;4952484;29;20403;-85
2023/04/25 06:42:40;;;;;;;7.03;1.80;;;;;;;5.37;100.00;63332.38;4937157;29;20055;-85
2023/04/25 06:45:06;;;;;;;10.43;1.92;;;;;;;5.38;100.00;63333.81;4952738;28;20038;-85
2023/04/25 06:58:39;;;;;;;8.73;2.30;;;;;;;5.49;100.00;63344.25;4948286;23;20055;-86
2023/04/25 07:01:05;;;;;;;13.07;2.33;;;;;;;5.51;100.00;63346.41;4928200;29;20032;-84
2023/04/25 07:03:31;;;;;;;15.85;2.63;;;;;;;5.53;100.00;63349.22;4917511;29;20106;-85
2023/04/25 07:05:56;;;;;;;13.23;2.30;;;;;;;5.56;100.00;63351.78;4932640;29;20488;-88
2023/04/25 07:08:21;;;;;;;9.10;1.65;;;;;;;5.59;100.00;63355.41;4931590;29;20028;-85
2023/04/25 07:10:47;;;;;;;7.87;1.70;;;;;;;5.62;100.00;63358.91;4943568;28;20070;-86
2023/04/25 07:13:12;;;;;;;8.83;1.93;;;;;;;5.66;100.00;63362.47;4937529;29;20031;-86
2023/04/25 07:15:37;;;;;;;8.90;1.80;;;;;;;5.69;100.00;63365.88;4934399;29;20075;-89
2023/04/25 07:18:03;;;;;;;5.38;1.25;;;;;;;5.73;100.00;63369.75;4934418;29;20058;-86
2023/04/25 07:20:30;;;;;;;10.63;1.63;;;;;;;5.76;100.00;63373.06;4934534;29;20039;-86
2023/04/25 07:22:56;;;;;;;9.07;1.40;;;;;;;5.80;100.00;63377.47;4927064;29;20032;-85
2023/04/25 07:25:24;;;;;;;9.10;1.20;;;;;;;5.84;99.06;63381.59;4933260;29;20035;-84
2023/04/25 07:27:50;;;;;;;8.10;1.10;;;;;;;5.88;99.50;63385.84;4932233;29;20020;-84
2023/04/25 07:30:18;;;;;;;7.80;1.40;;;;;;;5.93;95.08;63390.91;4931446;29;20714;-83
2023/04/25 07:32:45;;;;;;;10.13;1.20;;;;;;;5.98;96.20;63395.47;5272214;23;20062;-83
2023/04/25 07:38:37;;;;;;;9.05;1.10;;;;;;;6.09;94.76;63406.75;4933928;28;20091;-84
2023/04/25 07:41:11;;;;;;;5.95;1.17;;;;;;;6.15;90.06;63412.38;4918485;29;20043;-84
2023/04/25 07:43:43;;;;;;;10.50;1.10;;;;;;;6.21;84.84;63418.53;4909917;29;20033;-84
2023/04/25 07:46:19;;;;;;;9.05;1.38;;;;;;;6.28;88.04;63425.31;4916010;29;20032;-84
2023/04/25 07:48:47;;;;;;;10.13;1.30;;;;;;;6.36;86.05;63433.72;4918760;29;20492;-85
2023/04/25 07:51:13;;;;;;;7.93;1.17;;;;;;;6.44;83.63;63442.16;4934800;29;20822;-84
2023/04/25 07:53:38;;;;;;;4.40;1.10;;;;;;;6.52;81.98;63449.53;4916854;29;20102;-85
2023/04/25 07:56:04;;;;;;;7.90;1.07;;;;;;;6.59;80.57;63456.84;4916796;29;20059;-85
2023/04/25 07:58:29;;;;;;;6.57;1.00;;;;;;;6.67;83.29;63464.25;4915098;29;20028;-84
2023/04/25 08:00:55;;;;;;;8.83;1.30;;;;;;;6.76;81.52;63473.38;4919258;29;20020;-84
2023/04/25 08:03:21;;;;;;;6.17;1.17;;;;;;;6.86;78.38;63483.72;4931437;29;20494;-85
2023/04/25 08:05:46;;;;;;;8.80;1.33;;;;;;;6.97;76.20;63495.34;4923435;29;20167;-85
2023/04/25 08:08:14;;;;;;;10.10;1.60;;;;;;;7.08;77.05;63506.88;4918194;29;20150;-83
2023/04/25 08:10:42;;;;;;;6.97;1.00;;;;;;;7.19;75.83;63518.34;4913353;29;20424;-83
2023/04/25 08:13:07;;;;;;;9.60;1.60;;;;;;;7.30;76.21;63529.28;4913211;29;20024;-87
2023/04/25 08:15:34;;;;;;;6.53;1.60;;;;;;;7.42;76.14;63541.41;4918074;29;20043;-86
2023/04/25 08:17:59;;;;;;;10.82;1.55;;;;;;;7.55;75.31;63553.94;4913334;29;20384;-85
2023/04/25 08:39:12;;;;;;;10.07;1.70;;;;;;;8.58;69.64;63658.59;4968625;28;20053;-83
2023/04/25 08:42:15;;;;;;;7.13;1.55;;;;;;;8.69;72.08;63669.81;4949866;28;20116;-84
2023/04/25 08:44:41;;;;;;;14.00;1.65;;;;;;;8.79;68.52;63679.78;4955160;28;20031;-84
2023/04/25 08:47:08;;;;;;;8.73;1.47;;;;;;;8.88;67.72;63689.69;4952313;28;20026;-83
2023/04/25 08:49:34;;;;;;;8.38;1.65;;;;;;;8.98;69.51;63699.56;4961480;28;20027;-84
2023/04/25 08:52:02;;;;;;;13.68;2.10;;;;;;;9.07;67.38;63708.88;4952841;28;20020;-84
2023/04/25 08:54:30;;;;;;;13.25;1.85;;;;;;;9.17;69.98;63718.69;4937350;28;20042;-84
2023/04/25 08:56:57;;;;;;;11.48;1.65;;;;;;;9.28;66.68;63730.16;4953097;29;20027;-84
2023/04/25 08:59:23;;;;;;;10.48;1.65;;;;;;;9.40;69.30;63742.28;4945191;28;20031;-83
2023/04/25 09:01:49;;;;;;;7.87;1.67;;;;;;;9.53;66.21;63754.78;5404404;23;20146;-83
2023/04/25 09:04:15;;;;;;;8.65;1.35;;;;;;;9.65;64.20;63767.41;4935974;29;20120;-84
2023/04/25 09:06:41;;;;;;;8.93;1.67;;;;;;;9.76;63.75;63778.97;4938647;28;20055;-84
2023/04/25 09:09:08;;;;;;;8.77;1.65;;;;;;;9.85;65.41;63788.03;4924893;29;20519;-84
2023/04/25 09:11:36;;;;;;;8.82;1.60;;;;;;;9.93;65.77;63796.09;4940537;29;20313;-84
2023/04/25 09:14:11;;;;;;;7.18;1.45;;;;;;;10.00;67.37;63802.66;4973666;28;20047;-84
2023/04/25 09:16:56;;;;;;;6.05;1.27;;;;;;;10.05;68.62;63807.91;4958807;29;20098;-84
2023/04/25 09:19:22;;;;;;;7.03;1.10;;;;;;;10.09;64.00;63812.16;4961332;29;20028;-84
2023/04/25 09:21:54;;;;;;;7.37;1.40;;;;;;;10.13;64.28;63816.66;4949674;29;20306;-84
2023/04/25 09:24:44;;;;;;;10.43;1.35;;;;;;;10.19;67.16;63822.63;4931261;29;20074;-84
2023/04/25 09:27:11;;;;;;;7.30;1.15;;;;;;;10.26;61.66;63829.88;4938207;29;20055;-84
2023/04/25 09:29:38;;;;;;;6.50;1.55;;;;;;;10.33;57.61;63836.50;4936236;29;20124;-85
2023/04/25 09:32:23;;;;;;;9.38;1.17;;;;;;;10.36;58.66;63840.09;4934342;29;20027;-85
2023/04/25 09:34:53;;;;;;;4.28;1.00;;;;;;;10.39;61.07;63843.44;4929506;29;20075;-85
2023/04/25 09:37:20;;;;;;;3.72;1.08;;;;;;;10.43;56.98;63847.13;4933704;29;20030;-85
2023/04/25 09:39:50;;;;;;;3.97;1.07;;;;;;;10.45;57.13;63849.78;4940097;29;20071;-84
2023/04/25 09:42:17;;;;;;;5.80;1.30;;;;;;;10.47;58.19;63851.69;4932331;29;20299;-85
2023/04/25 09:44:46;;;;;;;9.45;1.42;;;;;;;10.49;59.18;63853.84;4935473;29;20105;-83
2023/04/25 09:47:17;;;;;;;4.05;1.30;;;;;;;10.53;59.71;63857.00;4934373;29;20130;-83
2023/04/25 09:49:43;;;;;;;4.93;1.38;;;;;;;10.57;61.43;63862.00;4917157;29;20039;-85
2023/04/25 09:52:09;;;;;;;10.30;1.90;;;;;;;10.61;60.11;63865.91;4935806;29;20488;-84
2023/04/25 09:54:34;;;;;;;11.40;1.70;;;;;;;10.64;59.98;63868.75;4934976;29;20491;-84
2023/04/25 09:57:13;;;;;;;7.70;1.40;;;;;;;10.64;62.67;63868.16;4935036;29;20280;-85
2023/04/25 09:59:43;;;;;;;6.18;1.58;;;;;;;10.59;64.07;63864.00;4934009;29;20031;-84
2023/04/25 10:02:09;;;;;;;5.90;1.70;;;;;;;10.53;66.13;63857.34;4941616;23;20043;-84
2023/04/25 10:04:52;;;;;;;9.00;1.63;;;;;;;10.43;72.22;63847.84;4945384;29;20806;-84
2023/04/25 10:07:18;;;;;;;7.18;1.50;;;;;;;10.37;74.24;63841.19;4918423;29;20123;-85
2023/04/25 10:09:48;;;;;;;4.85;1.20;;;;;;;10.31;68.64;63835.78;4937264;29;20123;-84
2023/04/25 10:12:16;;;;;;;7.10;1.10;;;;;;;10.27;61.05;63832.03;4912590;29;20035;-85
2023/04/25 10:14:42;;;;;;;7.23;1.17;;;;;;;10.25;59.62;63830.03;4913124;29;20322;-84
2023/04/25 10:17:10;;;;;;;3.97;0.98;;;;;;;10.25;60.30;63829.69;4929832;29;20027;-84
2023/04/25 10:19:36;;;;;;;3.38;0.75;;;;;;;10.26;61.54;63830.28;4925908;29;20661;-84
2023/04/25 10:25:24;;;;;;;3.72;0.90;;;;;;;10.31;58.53;63835.44;4935120;29;20143;-84
2023/04/25 10:28:04;;;;;;;5.27;0.90;;;;;;;10.35;59.83;63839.59;4953100;28;20086;-84
2023/04/25 10:33:42;;;;;;;;;;;;;;;;;;;;;
2023/04/25 10:36:27;;;;;;;3.33;1.10;;;;;;;10.52;55.26;63856.84;4930980;29;20047;-84
2023/04/25 10:38:52;;;;;;;3.85;1.05;;;;;;;10.63;51.89;63867.66;4914926;29;20111;-84
2023/04/25 10:41:22;;;;;;;6.93;1.13;;;;;;;10.75;52.46;63880.06;4936395;29;20110;-84
2023/04/25 10:43:50;;;;;;;4.97;0.93;;;;;;;10.85;49.71;63890.31;4934111;29;20625;-84
2023/04/25 10:46:15;;;;;;;5.13;1.25;;;;;;;10.94;51.98;63899.13;4936988;29;20043;-84
2023/04/25 10:49:00;;;;;;;3.53;1.00;;;;;;;11.02;55.73;63908.78;4933224;29;20397;-84
2023/04/25 10:51:31;;;;;;;6.85;1.48;;;;;;;11.13;53.08;63919.28;4933641;29;20038;-84
2023/04/25 10:54:05;;;;;;;7.05;1.17;;;;;;;11.24;50.65;63930.91;4935794;29;20122;-83
2023/04/25 10:56:44;;;;;;;3.88;1.00;;;;;;;11.35;50.44;63942.25;4934248;29;20035;-83
2023/04/25 10:59:09;;;;;;;2.97;1.00;;;;;;;11.44;50.12;63950.91;4934067;29;20034;-83
2023/04/25 11:01:57;;;;;;;4.15;0.88;;;;;;;11.51;52.68;63957.66;4934021;29;20565;-84
2023/04/25 11:04:23;;;;;;;4.28;1.05;;;;;;;11.55;52.77;63962.31;4934582;29;20035;-84
2023/04/25 11:07:02;;;;;;;5.10;1.10;;;;;;;11.58;56.21;63964.56;4932723;29;20032;-84
2023/04/25 11:09:28;;;;;;;5.07;1.20;;;;;;;11.58;54.64;63964.91;4934169;29;20299;-84
2023/04/25 11:11:58;;;;;;;6.03;1.23;;;;;;;11.54;61.20;63961.22;4933387;29;20395;-84
2023/04/25 11:16:59;;;;;;;5.93;1.20;;;;;;;11.41;62.69;63948.66;5801492;23;20382;-83
2023/04/25 11:19:26;;;;;;;5.50;1.13;;;;;;;11.38;63.03;63944.91;4933179;29;20036;-84
2023/04/25 11:21:55;;;;;;;7.10;1.15;;;;;;;11.34;66.63;63941.50;4926077;29;20036;-83
2023/04/25 11:24:29;;;;;;;9.07;1.48;;;;;;;11.28;72.72;63935.25;4923422;29;20398;-83
2023/04/25 11:26:55;;;;;;;5.88;1.20;;;;;;;11.17;74.36;63924.34;4915057;29;20039;-83
2023/04/25 11:29:27;;;;;;;7.72;1.30;;;;;;;11.01;74.80;63908.94;4914649;29;20040;-83
2023/04/25 11:55:30;;;;;;;3.42;0.57;;;;;;;10.44;60.96;63850.19;5435957;23;20063;-84
2023/04/25 11:57:55;;;;;;;4.60;0.80;;;;;;;10.41;62.02;63846.44;4951570;28;20031;-83
2023/04/25 12:03:02;;;;;;;4.97;0.82;;;;;;;10.39;56.58;63844.84;4956563;23;20054;-83
2023/04/25 12:05:33;;;;;;;5.90;1.08;;;;;;;10.38;56.59;63844.78;4944833;29;20467;-83
2023/04/25 12:08:59;;;;;;;4.90;0.80;;;;;;;10.42;57.42;63847.78;4949439;28;20035;-84
2023/04/25 12:11:24;;;;;;;2.47;0.70;;;;;;;10.45;53.66;63851.44;4913820;29;20053;-85
2023/04/25 12:13:53;;;;;;;3.73;0.73;;;;;;;10.51;52.18;63857.75;4914588;29;20132;-83
2023/04/25 12:16:19;;;;;;;3.20;0.60;;;;;;;10.59;52.03;63865.66;4911787;29;20029;-84
2023/04/25 12:18:46;;;;;;;2.45;0.70;;;;;;;10.66;53.41;63873.22;4913566;29;20036;-84
2023/04/25 12:21:11;;;;;;;3.20;0.70;;;;;;;10.71;50.83;63878.22;4918701;29;20407;-85
2023/04/25 12:23:39;;;;;;;4.20;0.77;;;;;;;10.75;51.44;63882.53;4935105;29;20083;-84
2023/04/25 12:26:05;;;;;;;4.57;0.90;;;;;;;10.80;53.56;63887.88;4912666;29;20115;-85
2023/04/25 12:28:33;;;;;;;2.05;0.70;;;;;;;10.85;52.13;63892.88;4907173;29;20083;-84
2023/04/25 12:31:06;;;;;;;2.05;0.70;;;;;;;10.86;49.29;63893.44;4910329;29;20059;-85
2023/04/25 12:33:34;;;;;;;2.20;0.65;;;;;;;10.85;46.37;63892.97;4917800;29;20035;-83
2023/04/25 12:36:08;;;;;;;3.22;0.70;;;;;;;10.85;45.96;63892.47;4917900;29;20038;-84
2023/04/25 12:38:40;;;;;;;1.90;0.60;;;;;;;10.87;45.26;63894.63;4917645;29;20047;-85
2023/04/25 12:41:05;;;;;;;2.47;0.60;;;;;;;10.89;45.83;63896.53;4917415;29;20028;-83
2023/04/25 12:43:34;;;;;;;1.53;0.70;;;;;;;10.91;45.02;63898.94;4915910;29;20280;-85
2023/04/25 12:45:59;;;;;;;2.83;0.63;;;;;;;10.95;46.21;63902.34;4916377;29;20033;-83